createdAt,value
2023-05-20T00:00:53.342Z,14.60
2023-05-20T00:03:20.651Z,15.95
2023-05-20T00:05:47.968Z,15.60
2023-05-20T00:08:15.516Z,15.15
2023-05-20T00:10:42.424Z,14.00
2023-05-20T00:13:09.431Z,15.30
2023-05-20T00:15:37.058Z,15.35
2023-05-20T00:18:04.831Z,16.67
2023-05-20T00:20:32.630Z,15.13
2023-05-20T00:22:59.900Z,15.93
2023-05-20T00:25:26.854Z,15.15
2023-05-20T00:27:53.830Z,15.32
2023-05-20T00:30:21.028Z,16.42
2023-05-20T00:32:48.161Z,15.02
2023-05-20T00:35:15.406Z,15.27
2023-05-20T00:37:42.863Z,15.45
2023-05-20T00:40:10.145Z,15.27
2023-05-20T00:42:37.088Z,16.33
2023-05-20T00:45:04.354Z,15.35
2023-05-20T00:47:34.586Z,15.20
2023-05-20T00:50:02.240Z,14.98
2023-05-20T00:52:32.837Z,14.82
2023-05-20T00:55:00.123Z,15.23
2023-05-20T00:57:27.529Z,16.10
2023-05-20T00:59:55.257Z,14.90
2023-05-20T01:02:22.793Z,15.75
2023-05-20T01:04:50.751Z,16.92
2023-05-20T01:07:18.781Z,17.42
2023-05-20T01:09:46.829Z,17.17
2023-05-20T01:12:23.833Z,15.70
2023-05-20T01:15:01.596Z,15.82
2023-05-20T01:17:38.015Z,14.73
2023-05-20T01:20:08.860Z,15.15
2023-05-20T01:22:38.251Z,14.57
2023-05-20T01:27:32.551Z,14.75
2023-05-20T01:30:00.208Z,14.50
2023-05-20T01:32:39.231Z,13.77
2023-05-20T01:35:09.894Z,14.85
2023-05-20T01:37:40.473Z,15.52
2023-05-20T01:40:08.934Z,15.68
2023-05-20T01:42:36.918Z,15.02
2023-05-20T01:45:05.183Z,14.65
2023-05-20T01:47:32.946Z,14.77
2023-05-20T01:50:00.964Z,15.32
2023-05-20T01:52:31.866Z,16.85
2023-05-20T01:54:58.920Z,19.60
2023-05-20T01:57:26.433Z,34.60
2023-05-20T01:59:53.541Z,41.92
2023-05-20T02:02:22.203Z,51.63
2023-05-20T02:04:51.207Z,58.90
2023-05-20T02:07:19.020Z,59.90
2023-05-20T02:09:46.681Z,54.80
2023-05-20T02:12:17.177Z,57.25
2023-05-20T02:14:46.090Z,60.92
2023-05-20T02:17:17.671Z,62.67
2023-05-20T02:19:46.051Z,56.53
2023-05-20T02:22:13.784Z,46.65
2023-05-20T02:24:40.806Z,43.65
2023-05-20T02:27:08.029Z,45.28
2023-05-20T02:29:35.302Z,41.92
2023-05-20T02:32:02.872Z,43.88
2023-05-20T02:34:32.488Z,46.78
2023-05-20T02:39:26.283Z,51.25
2023-05-20T02:41:53.230Z,46.67
2023-05-20T02:44:20.396Z,43.55
2023-05-20T02:46:48.581Z,40.20
2023-05-20T02:49:15.659Z,38.72
2023-05-20T02:51:42.723Z,32.72
2023-05-20T02:54:09.842Z,29.92
2023-05-20T02:56:36.836Z,33.08
2023-05-20T02:59:04.797Z,27.92
2023-05-20T03:01:33.924Z,25.55
2023-05-20T03:04:02.528Z,26.67
2023-05-20T03:06:32.630Z,28.73
2023-05-20T03:08:59.820Z,26.30
2023-05-20T03:11:26.878Z,25.08
2023-05-20T03:13:53.860Z,23.23
2023-05-20T03:16:21.014Z,24.52
2023-05-20T03:18:48.426Z,23.58
2023-05-20T03:21:18.794Z,22.58
2023-05-20T03:23:45.907Z,21.92
2023-05-20T03:26:13.118Z,20.83
2023-05-20T03:28:40.151Z,19.70
2023-05-20T03:31:07.908Z,20.25
2023-05-20T03:33:35.557Z,20.40
2023-05-20T03:36:03.877Z,21.17
2023-05-20T03:38:31.089Z,22.25
2023-05-20T03:40:57.994Z,23.10
2023-05-20T03:43:25.676Z,22.92
2023-05-20T03:45:52.818Z,23.45
2023-05-20T03:48:20.575Z,22.50
2023-05-20T03:50:49.652Z,21.67
2023-05-20T03:53:17.578Z,23.48
2023-05-20T03:55:44.633Z,23.35
2023-05-20T03:58:13.812Z,23.00
2023-05-20T04:00:41.653Z,22.40
2023-05-20T04:03:08.974Z,22.42
2023-05-20T04:05:36.914Z,20.85
2023-05-20T04:08:07.755Z,20.67
2023-05-20T04:10:34.859Z,20.73
2023-05-20T04:13:01.930Z,19.85
2023-05-20T04:15:29.877Z,19.23
2023-05-20T04:20:26.028Z,18.27
2023-05-20T04:22:56.214Z,19.92
2023-05-20T04:25:24.046Z,19.17
2023-05-20T04:27:51.083Z,19.55
2023-05-20T04:30:18.629Z,19.05
2023-05-20T04:32:45.774Z,19.92
2023-05-20T04:35:16.181Z,18.73
2023-05-20T04:37:49.086Z,18.30
2023-05-20T04:40:17.210Z,19.75
2023-05-20T04:42:44.911Z,18.55
2023-05-20T04:45:13.789Z,19.48
2023-05-20T04:47:42.172Z,18.92
2023-05-20T04:50:13.730Z,18.63
2023-05-20T04:52:43.198Z,19.67
2023-05-20T04:55:12.329Z,19.45
2023-05-20T04:57:42.971Z,19.10
2023-05-20T05:00:12.567Z,18.40
2023-05-20T05:02:41.012Z,19.25
2023-05-20T05:05:08.807Z,19.67
2023-05-20T05:07:36.328Z,18.08
2023-05-20T05:10:03.520Z,18.60
2023-05-20T05:12:34.763Z,17.88
2023-05-20T05:15:02.788Z,18.63
2023-05-20T05:17:33.479Z,17.67
2023-05-20T05:20:01.330Z,17.30
2023-05-20T05:22:32.721Z,18.15
2023-05-20T05:25:00.160Z,17.52
2023-05-20T05:27:27.247Z,16.63
2023-05-20T05:29:54.441Z,17.77
2023-05-20T05:32:21.827Z,17.90
2023-05-20T05:34:48.894Z,15.90
2023-05-20T05:37:15.984Z,17.08
2023-05-20T05:39:44.255Z,16.77
2023-05-20T05:42:11.628Z,16.77
2023-05-20T05:44:38.828Z,17.38
2023-05-20T05:47:08.059Z,16.52
2023-05-20T05:49:35.250Z,16.88
2023-05-20T05:52:03.360Z,16.85
2023-05-20T05:54:30.524Z,16.35
2023-05-20T05:56:57.652Z,16.52
2023-05-20T05:59:26.527Z,14.40
2023-05-20T06:01:53.590Z,13.43
2023-05-20T06:04:20.897Z,11.98
2023-05-20T06:06:48.525Z,33.47
2023-05-20T06:09:16.543Z,38.33
2023-05-20T06:11:44.468Z,15.75
2023-05-20T06:14:11.432Z,11.38
2023-05-20T06:16:38.591Z,10.68
2023-05-20T06:19:09.356Z,9.97
2023-05-20T06:21:36.963Z,10.38
2023-05-20T06:24:04.872Z,9.13
2023-05-20T06:26:33.472Z,9.75
2023-05-20T06:29:00.827Z,9.75
2023-05-20T06:31:30.219Z,9.35
2023-05-20T06:33:57.867Z,9.90
2023-05-20T06:36:27.428Z,8.57
2023-05-20T06:38:54.448Z,9.53
2023-05-20T06:41:22.416Z,9.07
2023-05-20T06:43:53.367Z,8.82
2023-05-20T06:46:29.500Z,9.32
2023-05-20T06:49:03.343Z,8.18
2023-05-20T06:51:31.028Z,7.70
2023-05-20T06:53:58.103Z,8.45
2023-05-20T06:56:25.138Z,7.63
2023-05-20T06:58:52.436Z,7.38
2023-05-20T07:01:19.501Z,6.53
2023-05-20T07:03:47.684Z,6.25
2023-05-20T07:06:15.148Z,6.95
2023-05-20T07:08:42.362Z,6.85
2023-05-20T07:11:09.661Z,6.75
2023-05-20T07:13:38.006Z,6.50
2023-05-20T07:16:06.100Z,7.30
2023-05-20T07:18:34.035Z,7.20
2023-05-20T07:21:01.323Z,6.68
2023-05-20T07:23:35.979Z,6.90
2023-05-20T07:26:03.308Z,7.00
2023-05-20T07:28:30.345Z,6.70
2023-05-20T07:30:58.701Z,6.20
2023-05-20T07:33:29.743Z,7.32
2023-05-20T07:35:58.046Z,6.28
2023-05-20T07:38:25.210Z,7.20
2023-05-20T07:40:57.512Z,6.90
2023-05-20T07:43:24.825Z,6.10
2023-05-20T07:45:51.994Z,6.60
2023-05-20T07:48:19.004Z,7.40
2023-05-20T07:50:45.931Z,6.43
2023-05-20T07:53:13.405Z,6.63
2023-05-20T07:55:40.445Z,6.82
2023-05-20T07:58:07.603Z,5.90
2023-05-20T08:00:36.058Z,6.63
2023-05-20T08:03:08.335Z,6.10
2023-05-20T08:05:54.628Z,6.78
2023-05-20T08:08:22.136Z,6.57
2023-05-20T08:11:04.300Z,6.70
2023-05-20T08:13:33.074Z,7.07
2023-05-20T08:16:03.982Z,6.80
2023-05-20T08:18:31.203Z,6.78
2023-05-20T08:20:59.006Z,6.80
2023-05-20T08:23:26.711Z,7.10
2023-05-20T08:25:53.747Z,6.05
2023-05-20T08:28:23.120Z,6.28
2023-05-20T08:30:52.060Z,6.25
2023-05-20T08:33:19.514Z,6.50
2023-05-20T08:35:46.607Z,6.55
2023-05-20T08:38:14.845Z,6.45
2023-05-20T08:40:41.831Z,6.57
2023-05-20T08:43:09.798Z,6.05
2023-05-20T08:45:39.091Z,6.53
2023-05-20T08:48:11.813Z,6.50
2023-05-20T08:50:39.330Z,6.60
2023-05-20T08:53:07.284Z,6.05
2023-05-20T08:55:37.008Z,6.38
2023-05-20T08:58:05.269Z,6.72
2023-05-20T09:00:32.333Z,6.28
2023-05-20T09:03:01.183Z,6.93
2023-05-20T09:05:28.828Z,6.60
2023-05-20T09:08:09.097Z,6.63
2023-05-20T09:10:37.308Z,7.47
2023-05-20T09:13:05.690Z,5.90
2023-05-20T09:15:34.037Z,5.80
2023-05-20T09:18:02.494Z,6.75
2023-05-20T09:20:29.998Z,6.57
2023-05-20T09:23:02.109Z,7.88
2023-05-20T09:25:29.599Z,7.13
2023-05-20T09:27:56.951Z,5.97
2023-05-20T09:30:24.613Z,6.43
2023-05-20T09:32:59.202Z,6.32
2023-05-20T09:35:27.547Z,5.95
2023-05-20T09:37:56.893Z,6.90
2023-05-20T09:40:28.766Z,6.97
2023-05-20T09:43:03.040Z,6.80
2023-05-20T09:45:30.789Z,6.10
2023-05-20T09:47:58.292Z,6.45
2023-05-20T09:50:26.460Z,5.97
2023-05-20T09:52:54.831Z,6.15
2023-05-20T09:55:24.304Z,6.32
2023-05-20T10:00:19.845Z,6.10
2023-05-20T10:02:50.216Z,6.72
2023-05-20T10:05:21.994Z,6.53
2023-05-20T10:08:10.950Z,5.72
2023-05-20T10:10:47.883Z,6.78
2023-05-20T10:13:33.254Z,6.82
2023-05-20T10:16:05.827Z,5.68
2023-05-20T10:18:45.516Z,6.28
2023-05-20T10:21:17.206Z,5.25
2023-05-20T10:23:44.628Z,6.20
2023-05-20T10:26:11.724Z,5.82
2023-05-20T10:28:41.488Z,5.32
2023-05-20T10:31:21.766Z,4.85
2023-05-20T10:33:52.279Z,5.00
2023-05-20T10:36:31.770Z,4.97
2023-05-20T10:39:00.022Z,4.43
2023-05-20T10:41:28.978Z,5.05
2023-05-20T10:44:06.791Z,4.68
2023-05-20T10:46:51.473Z,5.00
2023-05-20T10:49:27.259Z,4.60
2023-05-20T10:51:55.646Z,4.68
2023-05-20T10:54:23.409Z,4.57
2023-05-20T10:56:52.703Z,5.00
2023-05-20T10:59:21.636Z,4.55
2023-05-20T11:01:49.372Z,5.32
2023-05-20T11:04:17.531Z,5.13
2023-05-20T11:06:53.958Z,5.45
2023-05-20T11:09:21.912Z,5.43
2023-05-20T11:11:51.050Z,4.55
2023-05-20T11:16:47.122Z,5.28
2023-05-20T11:19:18.961Z,5.82
2023-05-20T11:21:48.021Z,5.45
2023-05-20T11:24:22.175Z,4.97
2023-05-20T11:26:49.316Z,5.50
2023-05-20T11:29:18.050Z,5.30
2023-05-20T11:31:45.114Z,5.03
2023-05-20T11:34:12.515Z,4.50
2023-05-20T11:36:43.267Z,7.18
2023-05-20T11:39:13.539Z,6.20
2023-05-20T11:41:42.637Z,7.72
2023-05-20T11:44:15.879Z,5.15
2023-05-20T11:46:44.570Z,7.03
2023-05-20T11:49:13.753Z,5.20
2023-05-20T11:51:42.860Z,5.90
2023-05-20T11:54:10.707Z,5.15
2023-05-20T11:56:38.986Z,5.93
2023-05-20T11:59:07.261Z,5.77
2023-05-20T12:01:43.548Z,5.97
2023-05-20T12:04:11.381Z,5.50
2023-05-20T12:06:38.580Z,5.10
2023-05-20T12:09:08.757Z,5.53
2023-05-20T12:11:37.842Z,5.18
2023-05-20T12:14:04.895Z,4.85
2023-05-20T12:16:33.954Z,5.70
2023-05-20T12:21:29.295Z,5.78
2023-05-20T12:23:59.373Z,5.28
2023-05-20T12:26:30.153Z,5.43
2023-05-20T12:28:57.410Z,5.90
2023-05-20T12:31:25.833Z,5.32
2023-05-20T12:33:52.943Z,5.73
2023-05-20T12:36:20.048Z,5.35
2023-05-20T12:38:47.515Z,4.82
2023-05-20T12:41:14.495Z,5.43
2023-05-20T12:43:41.637Z,3.80
2023-05-20T12:46:08.867Z,3.55
2023-05-20T12:48:36.925Z,3.13
2023-05-20T12:51:04.323Z,3.47
2023-05-20T12:53:31.404Z,3.13
2023-05-20T12:55:58.561Z,3.05
2023-05-20T12:58:25.555Z,3.47
2023-05-20T13:00:52.567Z,3.10
2023-05-20T13:03:20.097Z,3.65
2023-05-20T13:05:47.225Z,3.28
2023-05-20T13:08:14.976Z,2.83
2023-05-20T13:10:42.216Z,3.90
2023-05-20T13:13:09.387Z,4.32
2023-05-20T13:15:36.872Z,4.13
2023-05-20T13:18:06.369Z,4.18
2023-05-20T13:23:00.484Z,3.97
2023-05-20T13:25:28.038Z,4.05
2023-05-20T13:27:55.010Z,4.30
2023-05-20T13:30:22.034Z,4.75
2023-05-20T13:32:49.162Z,4.10
2023-05-20T13:35:17.013Z,4.43
2023-05-20T13:37:44.254Z,4.28
2023-05-20T13:40:11.903Z,4.50
2023-05-20T13:42:39.166Z,5.10
2023-05-20T13:45:07.013Z,4.55
2023-05-20T13:47:34.348Z,5.00
2023-05-20T13:50:03.107Z,4.40
2023-05-20T13:52:30.979Z,4.55
2023-05-20T13:54:58.174Z,4.43
2023-05-20T13:57:25.249Z,5.30
2023-05-20T13:59:52.369Z,4.68
2023-05-20T14:02:19.614Z,4.82
2023-05-20T14:04:47.227Z,4.38
2023-05-20T14:07:14.423Z,4.50
2023-05-20T14:09:41.617Z,4.13
2023-05-20T14:12:08.787Z,5.32
2023-05-20T14:14:35.944Z,4.55
2023-05-20T14:17:03.094Z,4.93
2023-05-20T14:19:30.253Z,4.97
2023-05-20T14:22:01.073Z,5.00
2023-05-20T14:24:28.278Z,4.68
2023-05-20T14:26:55.527Z,4.88
2023-05-20T14:29:22.384Z,4.60
2023-05-20T14:31:49.381Z,35.42
2023-05-20T14:34:16.732Z,6.25
2023-05-20T14:36:44.314Z,5.63
2023-05-20T14:39:11.367Z,5.18
2023-05-20T14:41:38.399Z,5.20
2023-05-20T14:44:05.793Z,5.95
2023-05-20T14:46:33.188Z,6.05
2023-05-20T14:49:00.406Z,5.65
2023-05-20T14:51:27.473Z,5.90
2023-05-20T14:53:54.415Z,6.30
2023-05-20T14:56:21.805Z,5.93
2023-05-20T14:58:48.742Z,5.55
2023-05-20T15:01:15.801Z,6.43
2023-05-20T15:03:42.786Z,6.30
2023-05-20T15:06:09.892Z,5.65
2023-05-20T15:08:37.018Z,5.53
2023-05-20T15:11:04.279Z,5.63
2023-05-20T15:13:31.310Z,5.95
2023-05-20T15:15:58.305Z,5.40
2023-05-20T15:18:25.262Z,5.88
2023-05-20T15:20:52.296Z,5.65
2023-05-20T15:23:19.293Z,6.50
2023-05-20T15:25:46.336Z,5.80
2023-05-20T15:28:13.256Z,6.32
2023-05-20T15:30:40.404Z,5.95
2023-05-20T15:33:07.577Z,5.15
2023-05-20T15:35:34.650Z,5.38
2023-05-20T15:38:02.484Z,5.32
2023-05-20T15:40:29.648Z,5.97
2023-05-20T15:42:57.239Z,5.60
2023-05-20T15:45:24.681Z,5.07
2023-05-20T15:47:51.624Z,5.70
2023-05-20T15:50:18.823Z,5.45
2023-05-20T15:52:46.058Z,5.50
2023-05-20T15:55:13.179Z,5.57
2023-05-20T15:57:40.232Z,5.25
2023-05-20T16:00:10.464Z,5.10
2023-05-20T16:02:38.319Z,5.75
2023-05-20T16:05:06.351Z,5.15
2023-05-20T16:07:33.329Z,5.28
2023-05-20T16:10:00.429Z,5.68
2023-05-20T16:12:27.475Z,5.82
2023-05-20T16:14:54.540Z,6.00
2023-05-20T16:17:21.965Z,5.70
2023-05-20T16:19:49.242Z,5.68
2023-05-20T16:22:17.984Z,6.30
2023-05-20T16:24:45.411Z,6.38
2023-05-20T16:27:12.587Z,6.18
2023-05-20T16:29:39.963Z,6.30
2023-05-20T16:32:07.529Z,5.93
2023-05-20T16:34:34.675Z,5.65
2023-05-20T16:37:02.015Z,4.90
2023-05-20T16:39:29.044Z,5.43
2023-05-20T16:41:55.977Z,5.47
2023-05-20T16:44:23.176Z,4.97
2023-05-20T16:46:51.889Z,5.20
2023-05-20T16:49:20.356Z,4.78
2023-05-20T16:51:47.394Z,5.40
2023-05-20T16:54:14.310Z,5.50
2023-05-20T16:56:42.017Z,4.43
2023-05-20T16:59:08.989Z,5.03
2023-05-20T17:01:37.007Z,5.38
2023-05-20T17:04:04.300Z,5.22
2023-05-20T17:06:34.496Z,5.03
2023-05-20T17:09:05.391Z,5.40
2023-05-20T17:11:33.082Z,5.55
2023-05-20T17:14:00.985Z,5.28
2023-05-20T17:16:28.102Z,6.25
2023-05-20T17:18:56.465Z,5.63
2023-05-20T17:21:23.482Z,6.05
2023-05-20T17:23:50.547Z,5.95
2023-05-20T17:26:17.539Z,4.97
2023-05-20T17:28:44.628Z,5.55
2023-05-20T17:31:11.914Z,5.28
2023-05-20T17:33:39.434Z,5.75
2023-05-20T17:36:06.784Z,5.60
2023-05-20T17:38:33.957Z,5.18
2023-05-20T17:41:01.098Z,5.25
2023-05-20T17:43:28.103Z,6.40
2023-05-20T17:45:55.363Z,5.63
2023-05-20T17:48:22.390Z,5.57
2023-05-20T17:50:49.365Z,5.65
2023-05-20T17:53:18.749Z,5.90
2023-05-20T17:55:47.670Z,6.13
2023-05-20T17:58:15.033Z,5.55
2023-05-20T18:00:42.819Z,5.72
2023-05-20T18:03:10.446Z,5.32
2023-05-20T18:05:37.827Z,5.82
2023-05-20T18:08:05.337Z,5.65
2023-05-20T18:10:32.296Z,5.72
2023-05-20T18:12:59.231Z,6.22
2023-05-20T18:15:26.226Z,5.40
2023-05-20T18:17:53.286Z,6.03
2023-05-20T18:20:20.634Z,5.55
2023-05-20T18:22:50.469Z,6.22
2023-05-20T18:25:17.874Z,6.20
2023-05-20T18:27:44.832Z,6.47
2023-05-20T18:30:11.926Z,5.72
2023-05-20T18:32:39.165Z,6.13
2023-05-20T18:35:06.854Z,5.75
2023-05-20T18:37:34.358Z,6.20
2023-05-20T18:40:01.498Z,5.90
2023-05-20T18:42:28.860Z,5.45
2023-05-20T18:44:55.862Z,6.40
2023-05-20T18:47:23.071Z,5.78
2023-05-20T18:49:49.954Z,6.35
2023-05-20T18:52:17.052Z,6.03
2023-05-20T18:54:44.136Z,6.50
2023-05-20T18:57:11.147Z,5.65
2023-05-20T18:59:38.271Z,5.93
2023-05-20T19:02:05.617Z,6.60
2023-05-20T19:04:32.633Z,6.40
2023-05-20T19:07:00.956Z,9.05
2023-05-20T19:09:27.980Z,6.32
2023-05-20T19:11:58.906Z,5.93
2023-05-20T19:14:26.058Z,7.05
2023-05-20T19:16:53.170Z,5.90
2023-05-20T19:19:20.280Z,6.30
2023-05-20T19:21:47.251Z,6.03
2023-05-20T19:24:14.311Z,5.65
2023-05-20T19:26:41.307Z,5.88
2023-05-20T19:29:08.412Z,6.78
2023-05-20T19:31:35.528Z,7.00
2023-05-20T19:34:02.613Z,6.57
2023-05-20T19:36:29.547Z,6.85
2023-05-20T19:38:58.366Z,7.05
2023-05-20T19:41:26.105Z,7.13
2023-05-20T19:43:53.066Z,7.38
2023-05-20T19:46:20.209Z,7.15
2023-05-20T19:48:47.175Z,12.50
2023-05-20T19:51:14.208Z,8.10
2023-05-20T19:53:41.128Z,7.72
2023-05-20T19:56:08.404Z,6.75
2023-05-20T19:58:35.355Z,7.20
2023-05-20T20:01:02.713Z,7.05
2023-05-20T20:03:29.974Z,7.38
2023-05-20T20:05:57.271Z,7.10
2023-05-20T20:08:24.278Z,7.38
2023-05-20T20:10:51.343Z,7.35
2023-05-20T20:13:18.336Z,14.52
2023-05-20T20:15:45.399Z,9.52
2023-05-20T20:18:12.388Z,8.40
2023-05-20T20:20:42.717Z,8.05
2023-05-20T20:23:10.018Z,7.68
2023-05-20T20:25:38.829Z,8.35
2023-05-20T20:28:07.673Z,7.53
2023-05-20T20:30:36.179Z,7.57
2023-05-20T20:33:06.510Z,8.27
2023-05-20T20:35:34.240Z,7.82
2023-05-20T20:38:08.373Z,8.68
2023-05-20T20:40:41.694Z,9.98
2023-05-20T20:43:11.171Z,10.27
2023-05-20T20:45:38.222Z,9.43
2023-05-20T20:48:07.934Z,10.02
2023-05-20T20:50:36.469Z,9.43
2023-05-20T20:53:03.790Z,9.93
2023-05-20T20:55:30.857Z,10.40
2023-05-20T20:57:58.424Z,9.00
2023-05-20T21:00:27.042Z,9.25
2023-05-20T21:02:54.127Z,10.45
2023-05-20T21:05:21.618Z,9.20
2023-05-20T21:07:52.611Z,9.82
2023-05-20T21:10:20.682Z,10.00
2023-05-20T21:12:48.550Z,9.38
2023-05-20T21:15:15.816Z,8.73
2023-05-20T21:17:42.759Z,9.57
2023-05-20T21:20:10.539Z,10.25
2023-05-20T21:22:37.766Z,9.38
2023-05-20T21:25:05.667Z,10.75
2023-05-20T21:27:32.571Z,10.00
2023-05-20T21:29:59.536Z,9.48
2023-05-20T21:32:26.749Z,9.88
2023-05-20T21:34:54.283Z,9.40
2023-05-20T21:37:22.365Z,11.02
2023-05-20T21:39:49.331Z,10.02
2023-05-20T21:42:16.282Z,9.70
2023-05-20T21:44:43.180Z,11.45
2023-05-20T21:47:10.223Z,10.88
2023-05-20T21:49:37.170Z,11.02
2023-05-20T21:52:04.359Z,12.27
2023-05-20T21:54:31.278Z,11.30
2023-05-20T21:56:58.356Z,12.48
2023-05-20T21:59:25.222Z,12.48
2023-05-20T22:01:52.268Z,13.05
2023-05-20T22:04:19.143Z,11.82
2023-05-20T22:06:46.407Z,11.93
2023-05-20T22:09:13.293Z,11.75
2023-05-20T22:11:40.168Z,10.48
2023-05-20T22:14:07.223Z,10.90
2023-05-20T22:16:34.265Z,12.70
2023-05-20T22:19:02.578Z,11.65
2023-05-20T22:21:32.093Z,12.68
2023-05-20T22:24:01.440Z,12.98
2023-05-20T22:26:28.548Z,12.75
2023-05-20T22:28:55.670Z,12.93
2023-05-20T22:31:22.652Z,12.98
2023-05-20T22:33:49.589Z,13.25
2023-05-20T22:36:16.648Z,13.98
2023-05-20T22:38:43.860Z,14.13
2023-05-20T22:41:10.930Z,14.45
2023-05-20T22:43:37.875Z,13.50
2023-05-20T22:46:05.054Z,13.25
2023-05-20T22:48:32.079Z,13.85
2023-05-20T22:51:01.248Z,14.55
2023-05-20T22:53:28.605Z,14.32
2023-05-20T22:55:56.469Z,14.10
2023-05-20T22:58:24.061Z,13.77
2023-05-20T23:00:51.099Z,13.95
2023-05-20T23:03:18.155Z,13.45
2023-05-20T23:05:45.069Z,14.52
2023-05-20T23:08:12.309Z,15.20
2023-05-20T23:10:39.251Z,14.32
2023-05-20T23:13:06.371Z,13.95
2023-05-20T23:15:33.328Z,13.80
2023-05-20T23:18:00.568Z,14.75
2023-05-20T23:20:29.387Z,14.00
2023-05-20T23:22:56.396Z,14.52
2023-05-20T23:25:24.516Z,14.38
2023-05-20T23:27:51.537Z,14.88
2023-05-20T23:30:18.489Z,15.23
2023-05-20T23:32:45.559Z,14.50
2023-05-20T23:35:13.317Z,14.68
2023-05-20T23:37:40.962Z,14.73
2023-05-20T23:40:09.250Z,13.65
2023-05-20T23:42:36.819Z,14.27
2023-05-20T23:45:04.584Z,14.20
2023-05-20T23:47:34.356Z,14.93
2023-05-20T23:50:01.464Z,14.70
2023-05-20T23:52:32.633Z,15.85
2023-05-20T23:55:00.432Z,15.05
2023-05-20T23:57:27.471Z,14.85
2023-05-20T23:59:54.389Z,13.52
